createdAt,value
2022-12-02T00:00:02.085Z,4.87
2022-12-02T00:01:02.660Z,4.86
2022-12-02T00:02:02.655Z,4.81
2022-12-02T00:03:02.666Z,4.80
2022-12-02T00:04:02.449Z,4.77
2022-12-02T00:05:02.845Z,4.78
2022-12-02T00:06:02.757Z,4.74
2022-12-02T00:07:03.043Z,4.70
2022-12-02T00:08:02.857Z,4.75
2022-12-02T00:09:02.983Z,4.79
2022-12-02T00:10:02.660Z,4.85
2022-12-02T00:11:02.652Z,4.89
2022-12-02T00:12:02.847Z,4.95
2022-12-02T00:13:02.346Z,5.00
2022-12-02T00:14:02.817Z,5.04
2022-12-02T00:15:02.649Z,5.07
2022-12-02T00:16:02.704Z,5.02
2022-12-02T00:17:02.458Z,5.03
2022-12-02T00:18:02.598Z,4.97
2022-12-02T00:19:02.525Z,4.82
2022-12-02T00:20:02.973Z,4.80
2022-12-02T00:21:02.837Z,4.80
2022-12-02T00:22:03.094Z,4.75
2022-12-02T00:23:02.919Z,4.77
2022-12-02T00:24:02.712Z,4.71
2022-12-02T00:25:03.274Z,4.75
2022-12-02T00:26:03.026Z,4.78
2022-12-02T00:27:02.000Z,4.80
2022-12-02T00:28:02.460Z,4.73
2022-12-02T00:29:02.131Z,4.72
2022-12-02T00:30:02.184Z,4.79
2022-12-02T00:31:02.146Z,4.84
2022-12-02T00:32:02.610Z,4.83
2022-12-02T00:33:02.424Z,4.86
2022-12-02T00:34:02.540Z,4.83
2022-12-02T00:35:02.408Z,4.87
2022-12-02T00:36:02.319Z,4.89
2022-12-02T00:37:02.634Z,4.92
2022-12-02T00:38:02.384Z,4.97
2022-12-02T00:39:02.579Z,5.00
2022-12-02T00:40:02.599Z,5.03
2022-12-02T00:41:02.606Z,5.05
2022-12-02T00:42:02.237Z,5.09
2022-12-02T00:43:02.192Z,5.08
2022-12-02T00:44:02.283Z,5.06
2022-12-02T00:45:02.597Z,5.09
2022-12-02T00:46:02.661Z,5.13
2022-12-02T00:47:02.456Z,5.17
2022-12-02T00:48:02.394Z,5.18
2022-12-02T00:49:02.677Z,5.20
2022-12-02T00:50:02.509Z,5.18
2022-12-02T00:51:02.567Z,5.18
2022-12-02T00:52:02.789Z,5.22
2022-12-02T00:53:02.875Z,5.22
2022-12-02T00:54:02.877Z,5.24
2022-12-02T00:55:02.844Z,5.23
2022-12-02T00:56:02.838Z,5.24
2022-12-02T00:57:02.373Z,5.25
2022-12-02T00:58:02.569Z,5.26
2022-12-02T00:59:02.916Z,5.28
2022-12-02T01:00:02.841Z,5.30
2022-12-02T01:01:02.867Z,5.31
2022-12-02T01:02:02.776Z,5.29
2022-12-02T01:03:02.902Z,5.28
2022-12-02T01:04:02.919Z,5.31
2022-12-02T01:05:02.861Z,5.34
2022-12-02T01:06:02.700Z,5.34
2022-12-02T01:07:02.216Z,5.36
2022-12-02T01:08:02.675Z,5.34
2022-12-02T01:09:02.546Z,5.33
2022-12-02T01:10:02.664Z,5.34
2022-12-02T01:11:02.370Z,5.39
2022-12-02T01:12:02.735Z,5.42
2022-12-02T01:13:02.470Z,5.43
2022-12-02T01:14:02.814Z,5.43
2022-12-02T01:15:02.629Z,5.44
2022-12-02T01:16:02.804Z,5.44
2022-12-02T01:17:02.838Z,5.46
2022-12-02T01:18:02.462Z,5.49
2022-12-02T01:19:02.786Z,5.49
2022-12-02T01:20:02.722Z,5.52
2022-12-02T01:21:02.428Z,5.53
2022-12-02T01:22:01.880Z,5.54
2022-12-02T01:23:01.911Z,5.53
2022-12-02T01:24:01.801Z,5.52
2022-12-02T01:25:02.006Z,5.47
2022-12-02T01:26:02.113Z,5.42
2022-12-02T01:27:02.229Z,5.40
2022-12-02T01:28:02.853Z,5.36
2022-12-02T01:29:02.795Z,5.32
2022-12-02T01:30:02.800Z,5.30
2022-12-02T01:31:02.182Z,5.29
2022-12-02T01:32:02.139Z,5.28
2022-12-02T01:33:01.706Z,5.31
2022-12-02T01:34:02.186Z,5.32
2022-12-02T01:35:01.660Z,5.33
2022-12-02T01:36:01.766Z,5.31
2022-12-02T01:37:02.262Z,5.30
2022-12-02T01:38:02.349Z,5.28
2022-12-02T01:39:02.460Z,5.28
2022-12-02T01:40:02.234Z,5.31
2022-12-02T01:41:02.438Z,5.32
2022-12-02T01:42:01.890Z,5.37
2022-12-02T01:43:01.704Z,5.37
2022-12-02T01:44:02.122Z,5.35
2022-12-02T01:45:01.670Z,5.31
2022-12-02T01:46:02.209Z,5.32
2022-12-02T01:47:02.254Z,5.34
2022-12-02T01:48:02.299Z,5.36
2022-12-02T01:49:02.349Z,5.34
2022-12-02T01:50:02.381Z,5.35
2022-12-02T01:51:02.178Z,5.37
2022-12-02T01:52:02.677Z,5.40
2022-12-02T01:53:02.486Z,5.41
2022-12-02T01:54:03.030Z,5.42
2022-12-02T01:55:02.843Z,5.40
2022-12-02T01:56:02.612Z,5.41
2022-12-02T01:57:01.871Z,5.41
2022-12-02T01:58:02.309Z,5.34
2022-12-02T01:59:02.483Z,5.32
2022-12-02T02:00:02.008Z,5.31
2022-12-02T02:01:02.004Z,5.30
2022-12-02T02:02:02.274Z,5.33
2022-12-02T02:03:02.436Z,5.33
2022-12-02T02:04:02.666Z,5.35
2022-12-02T02:05:02.400Z,5.35
2022-12-02T02:06:02.324Z,5.34
2022-12-02T02:07:02.866Z,5.35
2022-12-02T02:08:02.674Z,5.35
2022-12-02T02:09:02.479Z,5.33
2022-12-02T02:10:02.264Z,5.32
2022-12-02T02:11:02.778Z,5.31
2022-12-02T02:12:02.340Z,5.30
2022-12-02T02:13:02.009Z,5.31
2022-12-02T02:14:01.805Z,5.29
2022-12-02T02:15:01.943Z,5.28
2022-12-02T02:16:02.014Z,5.27
2022-12-02T02:17:02.653Z,5.27
2022-12-02T02:18:05.052Z,5.27
2022-12-02T02:19:02.277Z,5.27
2022-12-02T02:20:02.066Z,5.27
2022-12-02T02:21:02.547Z,5.28
2022-12-02T02:22:02.788Z,5.30
2022-12-02T02:23:03.218Z,5.33
2022-12-02T02:24:03.209Z,5.35
2022-12-02T02:25:03.103Z,5.36
2022-12-02T02:26:02.989Z,5.38
2022-12-02T02:27:02.619Z,5.34
2022-12-02T02:28:02.693Z,5.37
2022-12-02T02:29:02.173Z,5.38
2022-12-02T02:30:02.631Z,5.38
2022-12-02T02:31:02.074Z,5.38
2022-12-02T02:32:02.624Z,5.38
2022-12-02T02:33:02.274Z,5.38
2022-12-02T02:34:02.332Z,5.35
2022-12-02T02:35:02.791Z,5.33
2022-12-02T02:36:02.627Z,5.32
2022-12-02T02:37:02.794Z,5.31
2022-12-02T02:38:03.121Z,5.29
2022-12-02T02:39:02.866Z,5.29
2022-12-02T02:40:03.211Z,5.27
2022-12-02T02:41:02.623Z,5.29
2022-12-02T02:42:02.949Z,5.29
2022-12-02T02:43:03.013Z,5.32
2022-12-02T02:44:02.735Z,5.33
2022-12-02T02:45:03.160Z,5.36
2022-12-02T02:46:02.986Z,5.35
2022-12-02T02:47:02.387Z,5.34
2022-12-02T02:48:02.205Z,5.32
2022-12-02T02:49:02.201Z,5.29
2022-12-02T02:50:02.479Z,5.27
2022-12-02T02:51:02.262Z,5.22
2022-12-02T02:52:02.839Z,5.17
2022-12-02T02:53:02.306Z,5.14
2022-12-02T02:54:02.614Z,5.11
2022-12-02T02:55:02.565Z,5.06
2022-12-02T02:56:02.676Z,5.05
2022-12-02T02:57:02.587Z,5.06
2022-12-02T02:58:03.105Z,5.08
2022-12-02T02:59:03.031Z,5.09
2022-12-02T03:00:02.662Z,5.09
2022-12-02T03:01:02.979Z,5.10
2022-12-02T03:02:02.348Z,5.09
2022-12-02T03:03:02.531Z,5.10
2022-12-02T03:04:02.089Z,5.10
2022-12-02T03:05:02.511Z,5.10
2022-12-02T03:06:01.975Z,5.08
2022-12-02T03:07:02.211Z,5.08
2022-12-02T03:08:01.992Z,5.04
2022-12-02T03:09:02.346Z,5.02
2022-12-02T03:10:02.376Z,4.98
2022-12-02T03:11:02.073Z,4.96
2022-12-02T03:12:02.143Z,4.95
2022-12-02T03:13:02.240Z,4.94
2022-12-02T03:14:02.058Z,4.95
2022-12-02T03:15:02.030Z,4.96
2022-12-02T03:16:02.481Z,4.98
2022-12-02T03:17:02.869Z,4.99
2022-12-02T03:18:02.425Z,4.99
2022-12-02T03:19:02.237Z,4.98
2022-12-02T03:20:02.213Z,5.01
2022-12-02T03:21:02.708Z,5.00
2022-12-02T03:22:02.000Z,5.02
2022-12-02T03:23:01.805Z,5.02
2022-12-02T03:24:01.530Z,5.01
2022-12-02T03:25:01.931Z,5.02
2022-12-02T03:26:01.433Z,5.03
2022-12-02T03:27:02.579Z,5.05
2022-12-02T03:28:02.463Z,5.06
2022-12-02T03:29:02.177Z,5.05
2022-12-02T03:30:01.977Z,5.07
2022-12-02T03:31:02.617Z,5.07
2022-12-02T03:32:01.908Z,5.07
2022-12-02T03:33:01.970Z,5.07
2022-12-02T03:34:01.417Z,5.07
2022-12-02T03:35:01.803Z,5.08
2022-12-02T03:36:01.468Z,5.09
2022-12-02T03:37:01.828Z,5.07
2022-12-02T03:38:01.623Z,5.03
2022-12-02T03:39:01.417Z,5.01
2022-12-02T03:40:01.880Z,4.98
2022-12-02T03:41:01.618Z,4.97
2022-12-02T03:42:01.786Z,4.95
2022-12-02T03:43:01.575Z,4.97
2022-12-02T03:44:01.695Z,4.96
2022-12-02T03:45:01.789Z,4.96
2022-12-02T03:46:01.495Z,4.95
2022-12-02T03:47:02.094Z,4.95
2022-12-02T03:48:02.631Z,4.96
2022-12-02T03:49:02.448Z,4.98
2022-12-02T03:50:02.739Z,4.97
2022-12-02T03:51:02.545Z,4.98
2022-12-02T03:52:01.773Z,5.01
2022-12-02T03:53:02.186Z,5.00
2022-12-02T03:54:02.014Z,4.97
2022-12-02T03:55:02.263Z,4.97
2022-12-02T03:56:02.209Z,4.99
2022-12-02T03:57:02.831Z,5.00
2022-12-02T03:58:02.606Z,4.99
2022-12-02T03:59:02.337Z,4.99
2022-12-02T04:00:02.623Z,4.99
2022-12-02T04:01:02.752Z,4.98
2022-12-02T04:02:02.960Z,4.91
2022-12-02T04:03:02.802Z,4.90
2022-12-02T04:04:02.952Z,4.89
2022-12-02T04:05:02.711Z,4.88
2022-12-02T04:06:03.060Z,4.87
2022-12-02T04:07:03.012Z,4.88
2022-12-02T04:08:02.881Z,4.88
2022-12-02T04:09:03.079Z,4.84
2022-12-02T04:10:02.983Z,4.85
2022-12-02T04:11:03.052Z,4.87
2022-12-02T04:12:03.130Z,4.88
2022-12-02T04:13:03.161Z,4.89
2022-12-02T04:14:02.788Z,4.89
2022-12-02T04:15:03.004Z,4.82
2022-12-02T04:16:02.985Z,4.79
2022-12-02T04:17:07.993Z,4.80
2022-12-02T04:18:02.622Z,4.81
2022-12-02T04:19:02.980Z,4.80
2022-12-02T04:20:02.960Z,4.81
2022-12-02T04:21:02.427Z,4.80
2022-12-02T04:22:03.077Z,4.79
2022-12-02T04:23:02.885Z,4.78
2022-12-02T04:24:02.632Z,4.77
2022-12-02T04:25:02.853Z,4.75
2022-12-02T04:26:02.640Z,4.78
2022-12-02T04:27:03.234Z,4.81
2022-12-02T04:28:02.686Z,4.83
2022-12-02T04:29:03.099Z,4.87
2022-12-02T04:30:03.174Z,4.87
2022-12-02T04:31:02.917Z,4.87
2022-12-02T04:32:03.227Z,4.88
2022-12-02T04:33:02.955Z,4.89
2022-12-02T04:34:03.008Z,4.88
2022-12-02T04:35:02.805Z,4.89
2022-12-02T04:36:02.865Z,4.89
2022-12-02T04:37:03.039Z,4.91
2022-12-02T04:38:08.712Z,4.91
2022-12-02T04:39:03.395Z,4.91
2022-12-02T04:40:03.590Z,4.92
2022-12-02T04:41:03.208Z,4.91
2022-12-02T04:42:02.758Z,4.92
2022-12-02T04:43:02.944Z,4.92
2022-12-02T04:44:02.610Z,4.93
2022-12-02T04:45:02.489Z,4.93
2022-12-02T04:46:02.797Z,4.95
2022-12-02T04:47:02.907Z,4.94
2022-12-02T04:48:03.429Z,4.93
2022-12-02T04:49:02.774Z,4.94
2022-12-02T04:50:02.737Z,4.96
2022-12-02T04:51:03.256Z,4.95
2022-12-02T04:52:03.580Z,4.93
2022-12-02T04:53:03.435Z,4.96
2022-12-02T04:54:03.116Z,4.96
2022-12-02T04:55:03.222Z,4.98
2022-12-02T04:56:02.924Z,4.97
2022-12-02T04:57:02.708Z,4.95
2022-12-02T04:58:02.919Z,4.91
2022-12-02T04:59:02.493Z,4.89
2022-12-02T05:00:02.277Z,4.87
2022-12-02T05:01:02.264Z,4.85
2022-12-02T05:02:03.335Z,4.80
2022-12-02T05:03:03.231Z,4.77
2022-12-02T05:04:02.991Z,4.73
2022-12-02T05:05:02.886Z,4.74
2022-12-02T05:06:03.442Z,4.70
2022-12-02T05:07:02.394Z,4.67
2022-12-02T05:08:02.922Z,4.68
2022-12-02T05:09:02.775Z,4.71
2022-12-02T05:10:02.311Z,4.73
2022-12-02T05:11:02.169Z,4.72
2022-12-02T05:12:02.542Z,4.70
2022-12-02T05:13:02.856Z,4.68
2022-12-02T05:14:02.627Z,4.67
2022-12-02T05:15:02.597Z,4.68
2022-12-02T05:16:02.457Z,4.70
2022-12-02T05:17:02.641Z,4.68
2022-12-02T05:18:02.544Z,4.66
2022-12-02T05:19:03.073Z,4.64
2022-12-02T05:20:02.763Z,4.63
2022-12-02T05:21:02.768Z,4.63
2022-12-02T05:22:02.331Z,4.64
2022-12-02T05:23:02.572Z,4.66
2022-12-02T05:24:02.380Z,4.69
2022-12-02T05:25:02.645Z,4.72
2022-12-02T05:26:02.655Z,4.72
2022-12-02T05:27:02.852Z,4.70
2022-12-02T05:28:02.598Z,4.69
2022-12-02T05:29:03.025Z,4.67
2022-12-02T05:30:02.963Z,4.64
2022-12-02T05:31:02.678Z,4.65
2022-12-02T05:32:03.049Z,4.63
2022-12-02T05:33:02.974Z,4.64
2022-12-02T05:34:03.184Z,4.66
2022-12-02T05:35:02.905Z,4.65
2022-12-02T05:36:02.625Z,4.70
2022-12-02T05:37:02.567Z,4.75
2022-12-02T05:38:04.952Z,4.77
2022-12-02T05:39:02.797Z,4.79
2022-12-02T05:40:02.380Z,4.81
2022-12-02T05:41:02.820Z,4.83
2022-12-02T05:42:02.065Z,4.88
2022-12-02T05:43:02.020Z,4.89
2022-12-02T05:44:02.456Z,4.89
2022-12-02T05:45:02.496Z,4.86
2022-12-02T05:46:01.918Z,4.84
2022-12-02T05:47:02.339Z,4.83
2022-12-02T05:48:02.577Z,4.80
2022-12-02T05:49:02.139Z,4.78
2022-12-02T05:50:02.138Z,4.80
2022-12-02T05:51:02.073Z,4.82
2022-12-02T05:52:02.379Z,4.86
2022-12-02T05:53:02.576Z,4.89
2022-12-02T05:54:02.459Z,4.92
2022-12-02T05:55:02.703Z,4.93
2022-12-02T05:56:02.713Z,4.88
2022-12-02T05:57:02.029Z,4.86
2022-12-02T05:58:01.958Z,4.86
2022-12-02T05:59:01.993Z,4.82
2022-12-02T06:00:02.213Z,4.79
2022-12-02T06:01:02.012Z,4.76
2022-12-02T06:02:02.900Z,4.73
2022-12-02T06:03:02.586Z,4.69
2022-12-02T06:04:02.238Z,4.67
2022-12-02T06:05:02.822Z,4.68
2022-12-02T06:06:02.634Z,4.69
2022-12-02T06:07:02.727Z,4.70
2022-12-02T06:08:02.549Z,4.73
2022-12-02T06:09:02.561Z,4.73
2022-12-02T06:10:02.531Z,4.71
2022-12-02T06:11:02.722Z,4.66
2022-12-02T06:12:02.817Z,4.65
2022-12-02T06:13:02.819Z,4.64
2022-12-02T06:14:02.917Z,4.62
2022-12-02T06:15:02.767Z,4.64
2022-12-02T06:16:02.437Z,4.67
2022-12-02T06:17:01.914Z,4.70
2022-12-02T06:18:02.265Z,4.72
2022-12-02T06:19:02.101Z,4.66
2022-12-02T06:20:01.978Z,4.63
2022-12-02T06:21:02.033Z,4.60
2022-12-02T06:22:02.703Z,4.64
2022-12-02T06:23:02.404Z,4.62
2022-12-02T06:24:02.776Z,4.65
2022-12-02T06:25:02.251Z,4.66
2022-12-02T06:26:02.894Z,4.70
2022-12-02T06:27:01.765Z,4.72
2022-12-02T06:28:07.353Z,4.71
2022-12-02T06:29:02.050Z,4.73
2022-12-02T06:30:02.417Z,4.78
2022-12-02T06:31:01.955Z,4.80
2022-12-02T06:32:02.087Z,4.82
2022-12-02T06:33:01.584Z,4.84
2022-12-02T06:34:01.787Z,4.87
2022-12-02T06:35:01.566Z,4.88
2022-12-02T06:36:01.733Z,4.85
2022-12-02T06:37:01.579Z,4.80
2022-12-02T06:38:01.604Z,4.80
2022-12-02T06:39:01.994Z,4.75
2022-12-02T06:41:01.906Z,4.74
2022-12-02T06:42:02.184Z,4.76
2022-12-02T06:43:02.143Z,4.75
2022-12-02T06:44:01.659Z,4.72
2022-12-02T06:45:01.581Z,4.70
2022-12-02T06:46:02.104Z,4.73
2022-12-02T06:47:02.595Z,4.72
2022-12-02T06:48:02.327Z,4.75
2022-12-02T06:49:02.797Z,4.77
2022-12-02T06:50:02.244Z,4.76
2022-12-02T06:51:02.483Z,4.78
2022-12-02T06:52:01.968Z,4.79
2022-12-02T06:53:02.238Z,4.80
2022-12-02T06:54:01.908Z,4.85
2022-12-02T06:55:01.813Z,4.89
2022-12-02T06:56:01.685Z,4.90
2022-12-02T06:57:01.836Z,4.89
2022-12-02T06:58:01.739Z,4.89
2022-12-02T06:59:02.011Z,4.91
2022-12-02T07:00:02.421Z,4.94
2022-12-02T07:01:02.441Z,4.93
2022-12-02T07:02:07.917Z,4.91
2022-12-02T07:03:02.905Z,4.90
2022-12-02T07:04:02.266Z,4.90
2022-12-02T07:05:02.428Z,4.90
2022-12-02T07:06:02.492Z,4.92
2022-12-02T07:07:03.137Z,4.93
2022-12-02T07:08:03.601Z,4.94
2022-12-02T07:09:02.833Z,4.96
2022-12-02T07:10:03.412Z,4.94
2022-12-02T07:11:03.039Z,4.92
2022-12-02T07:12:03.130Z,4.92
2022-12-02T07:13:03.617Z,4.92
2022-12-02T07:14:03.076Z,4.93
2022-12-02T07:15:03.692Z,4.97
2022-12-02T07:16:03.136Z,5.00
2022-12-02T07:17:02.942Z,5.02
2022-12-02T07:18:02.942Z,5.06
2022-12-02T07:19:02.891Z,5.08
2022-12-02T07:20:03.037Z,5.10
2022-12-02T07:21:03.010Z,5.12
2022-12-02T07:22:03.289Z,5.14
2022-12-02T07:23:03.100Z,5.15
2022-12-02T07:24:02.854Z,5.16
2022-12-02T07:25:03.234Z,5.17
2022-12-02T07:26:02.781Z,5.16
2022-12-02T07:27:05.779Z,5.14
2022-12-02T07:28:03.279Z,5.12
2022-12-02T07:29:15.244Z,5.10
2022-12-02T07:30:03.182Z,5.08
2022-12-02T07:31:03.622Z,5.06
2022-12-02T07:32:02.838Z,5.03
2022-12-02T07:33:02.972Z,5.04
2022-12-02T07:34:02.777Z,5.04
2022-12-02T07:35:02.691Z,5.03
2022-12-02T07:36:02.500Z,5.00
2022-12-02T07:37:03.207Z,4.94
2022-12-02T07:38:03.145Z,4.90
2022-12-02T07:39:06.912Z,4.87
2022-12-02T07:40:03.162Z,4.90
2022-12-02T07:41:02.703Z,4.93
2022-12-02T07:42:02.953Z,4.96
2022-12-02T07:43:02.934Z,5.01
2022-12-02T07:44:02.841Z,5.02
2022-12-02T07:45:02.588Z,5.01
2022-12-02T07:46:02.813Z,4.98
2022-12-02T07:47:02.591Z,5.00
2022-12-02T07:48:02.852Z,5.05
2022-12-02T07:49:02.388Z,5.11
2022-12-02T07:50:02.726Z,5.15
2022-12-02T07:51:02.377Z,5.18
2022-12-02T07:52:02.765Z,5.19
2022-12-02T07:53:03.296Z,5.15
2022-12-02T07:54:02.927Z,5.12
2022-12-02T07:55:03.270Z,5.12
2022-12-02T07:56:02.699Z,5.12
2022-12-02T07:57:03.205Z,5.12
2022-12-02T07:58:03.311Z,5.14
2022-12-02T07:59:12.004Z,5.14
2022-12-02T08:00:02.811Z,5.12
2022-12-02T08:01:03.083Z,5.12
2022-12-02T08:02:02.141Z,5.10
2022-12-02T08:03:02.104Z,5.08
2022-12-02T08:04:02.202Z,5.08
2022-12-02T08:05:02.044Z,5.11
2022-12-02T08:06:02.002Z,5.11
2022-12-02T08:07:02.632Z,5.13
2022-12-02T08:08:02.740Z,5.16
2022-12-02T08:09:02.260Z,5.18
2022-12-02T08:10:02.635Z,5.19
2022-12-02T08:11:02.283Z,5.20
2022-12-02T08:12:02.633Z,5.21
2022-12-02T08:13:02.544Z,5.24
2022-12-02T08:14:02.681Z,5.27
2022-12-02T08:15:02.229Z,5.27
2022-12-02T08:16:02.339Z,5.28
2022-12-02T08:17:01.966Z,5.29
2022-12-02T08:18:01.942Z,5.28
2022-12-02T08:19:01.807Z,5.28
2022-12-02T08:20:01.827Z,5.27
2022-12-02T08:21:05.609Z,5.23
2022-12-02T08:22:01.776Z,5.18
2022-12-02T08:23:01.839Z,5.16
2022-12-02T08:24:02.177Z,5.16
2022-12-02T08:25:01.930Z,5.17
2022-12-02T08:26:01.695Z,5.20
2022-12-02T08:27:02.230Z,5.25
2022-12-02T08:28:02.078Z,5.27
2022-12-02T08:29:01.784Z,5.30
2022-12-02T08:30:02.038Z,5.31
2022-12-02T08:31:02.074Z,5.32
2022-12-02T08:32:02.286Z,5.33
2022-12-02T08:33:02.465Z,5.33
2022-12-02T08:34:06.819Z,5.28
2022-12-02T08:35:02.315Z,5.26
2022-12-02T08:36:02.471Z,5.28
2022-12-02T08:37:01.793Z,5.31
2022-12-02T08:38:01.631Z,5.34
2022-12-02T08:39:02.002Z,5.40
2022-12-02T08:40:01.728Z,5.43
2022-12-02T08:41:02.010Z,5.48
2022-12-02T08:42:02.184Z,5.51
2022-12-02T08:43:02.448Z,5.55
2022-12-02T08:44:02.406Z,5.56
2022-12-02T08:45:02.153Z,5.54
2022-12-02T08:46:02.333Z,5.50
2022-12-02T08:47:02.475Z,5.51
2022-12-02T08:48:02.492Z,5.53
2022-12-02T08:49:02.928Z,5.54
2022-12-02T08:50:02.683Z,5.53
2022-12-02T08:51:02.294Z,5.53
2022-12-02T08:52:01.623Z,5.50
2022-12-02T08:53:02.157Z,5.47
2022-12-02T08:54:02.000Z,5.48
2022-12-02T08:55:01.647Z,5.52
2022-12-02T08:56:01.504Z,5.51
2022-12-02T08:57:02.457Z,5.53
2022-12-02T08:58:02.586Z,5.57
2022-12-02T08:59:02.074Z,5.59
2022-12-02T09:00:02.660Z,5.63
2022-12-02T09:01:02.250Z,5.61
2022-12-02T09:02:03.405Z,5.59
2022-12-02T09:03:03.354Z,5.59
2022-12-02T09:04:03.237Z,5.62
2022-12-02T09:05:03.304Z,5.66
2022-12-02T09:06:03.615Z,5.67
2022-12-02T09:07:02.715Z,5.67
2022-12-02T09:08:02.722Z,5.69
2022-12-02T09:09:02.779Z,5.69
2022-12-02T09:10:03.119Z,5.68
2022-12-02T09:11:02.812Z,5.72
2022-12-02T09:12:02.632Z,5.73
2022-12-02T09:13:02.668Z,5.74
2022-12-02T09:14:02.433Z,5.77
2022-12-02T09:15:02.909Z,5.78
2022-12-02T09:16:02.573Z,5.78
2022-12-02T09:17:02.556Z,5.81
2022-12-02T09:18:02.470Z,5.83
2022-12-02T09:19:02.599Z,5.83
2022-12-02T09:20:02.892Z,5.82
2022-12-02T09:21:02.615Z,5.77
2022-12-02T09:22:03.297Z,5.78
2022-12-02T09:23:03.278Z,5.79
2022-12-02T09:24:02.854Z,5.82
2022-12-02T09:25:03.153Z,5.81
2022-12-02T09:26:03.399Z,5.84
2022-12-02T09:27:03.234Z,5.83
2022-12-02T09:28:03.181Z,5.85
2022-12-02T09:29:03.227Z,5.86
2022-12-02T09:30:03.338Z,5.88
2022-12-02T09:31:03.138Z,5.89
2022-12-02T09:32:02.972Z,5.91
2022-12-02T09:33:02.497Z,5.94
2022-12-02T09:34:02.373Z,5.96
2022-12-02T09:35:02.897Z,5.98
2022-12-02T09:36:02.642Z,5.99
2022-12-02T09:37:03.095Z,5.97
2022-12-02T09:38:02.677Z,5.99
2022-12-02T09:39:02.872Z,6.02
2022-12-02T09:40:02.920Z,6.04
2022-12-02T09:41:02.515Z,6.03
2022-12-02T09:42:03.221Z,5.99
2022-12-02T09:43:03.398Z,5.97
2022-12-02T09:44:03.481Z,6.00
2022-12-02T09:45:03.434Z,6.02
2022-12-02T09:46:03.467Z,6.05
2022-12-02T09:47:03.329Z,6.10
2022-12-02T09:48:02.715Z,6.13
2022-12-02T09:49:03.047Z,6.18
2022-12-02T09:50:02.704Z,6.22
2022-12-02T09:51:02.945Z,6.22
2022-12-02T09:52:02.341Z,6.22
2022-12-02T09:53:02.807Z,6.20
2022-12-02T09:54:02.566Z,6.20
2022-12-02T09:55:02.842Z,6.19
2022-12-02T09:56:02.315Z,6.20
2022-12-02T09:57:03.068Z,6.21
2022-12-02T09:58:03.079Z,6.22
2022-12-02T09:59:03.279Z,6.24
2022-12-02T10:00:02.961Z,6.26
2022-12-02T10:01:03.310Z,6.28
2022-12-02T10:02:02.572Z,6.33
2022-12-02T10:03:02.961Z,6.34
2022-12-02T10:04:02.741Z,6.36
2022-12-02T10:05:02.364Z,6.37
2022-12-02T10:06:02.941Z,6.41
2022-12-02T10:07:02.463Z,6.43
2022-12-02T10:08:02.954Z,6.42
2022-12-02T10:09:02.490Z,6.40
2022-12-02T10:10:03.440Z,6.40
2022-12-02T10:11:02.807Z,6.39
2022-12-02T10:12:02.600Z,6.39
2022-12-02T10:13:07.469Z,6.41
2022-12-02T10:14:02.500Z,6.41
2022-12-02T10:15:03.043Z,6.42
2022-12-02T10:16:02.978Z,6.41
2022-12-02T10:17:02.622Z,6.43
2022-12-02T10:18:02.883Z,6.45
2022-12-02T10:19:03.111Z,6.46
2022-12-02T10:20:02.807Z,6.46
2022-12-02T10:21:02.744Z,6.49
2022-12-02T10:22:02.739Z,6.48
2022-12-02T10:23:02.761Z,6.49
2022-12-02T10:24:02.856Z,6.52
2022-12-02T10:25:02.874Z,6.54
2022-12-02T10:26:02.599Z,6.50
2022-12-02T10:27:01.753Z,6.50
2022-12-02T10:28:01.807Z,6.52
2022-12-02T10:29:02.112Z,6.54
2022-12-02T10:30:01.931Z,6.57
2022-12-02T10:31:01.923Z,6.53
2022-12-02T10:32:02.151Z,6.55
2022-12-02T10:33:01.836Z,6.56
2022-12-02T10:34:02.365Z,6.57
2022-12-02T10:35:02.132Z,6.53
2022-12-02T10:36:02.327Z,6.52
2022-12-02T10:37:02.078Z,6.51
2022-12-02T10:38:02.084Z,6.51
2022-12-02T10:39:02.048Z,6.51
2022-12-02T10:40:02.198Z,6.52
2022-12-02T10:41:02.245Z,6.52
2022-12-02T10:42:02.024Z,6.53
2022-12-02T10:43:01.975Z,6.56
2022-12-02T10:44:02.167Z,6.56
2022-12-02T10:45:02.296Z,6.54
2022-12-02T10:46:02.367Z,6.53
2022-12-02T10:47:02.870Z,6.51
2022-12-02T10:48:02.833Z,6.42
2022-12-02T10:49:02.450Z,6.41
2022-12-02T10:50:02.224Z,6.38
2022-12-02T10:51:02.788Z,6.40
2022-12-02T10:52:03.027Z,6.39
2022-12-02T10:53:03.145Z,6.39
2022-12-02T10:54:02.951Z,6.38
2022-12-02T10:55:02.684Z,6.39
2022-12-02T10:56:02.717Z,6.40
2022-12-02T10:57:02.039Z,6.35
2022-12-02T10:58:02.288Z,6.36
2022-12-02T10:59:02.620Z,6.36
2022-12-02T11:00:02.453Z,6.34
2022-12-02T11:01:02.210Z,6.35
2022-12-02T11:02:02.828Z,6.29
2022-12-02T11:03:02.794Z,6.31
2022-12-02T11:04:02.969Z,6.30
2022-12-02T11:05:02.557Z,6.25
2022-12-02T11:06:02.898Z,6.13
2022-12-02T11:07:02.797Z,6.07
2022-12-02T11:08:03.062Z,6.04
2022-12-02T11:09:38.024Z,5.98
2022-12-02T11:10:02.827Z,5.97
2022-12-02T11:11:02.903Z,5.89
2022-12-02T11:12:03.136Z,5.76
2022-12-02T11:13:03.108Z,5.64
2022-12-02T11:14:03.429Z,5.55
2022-12-02T11:15:03.091Z,5.46
2022-12-02T11:16:03.450Z,5.32
2022-12-02T11:17:03.309Z,5.19
2022-12-02T11:18:03.671Z,5.15
2022-12-02T11:19:03.653Z,5.11
2022-12-02T11:20:03.314Z,4.95
2022-12-02T11:21:03.437Z,4.92
2022-12-02T11:22:02.881Z,4.85
2022-12-02T11:23:02.747Z,4.76
2022-12-02T11:24:03.235Z,4.71
2022-12-02T11:25:03.214Z,4.61
2022-12-02T11:26:03.049Z,4.54
2022-12-02T11:27:02.887Z,4.54
2022-12-02T11:28:03.302Z,4.43
2022-12-02T11:29:02.925Z,4.34
2022-12-02T11:30:02.786Z,4.32
2022-12-02T11:31:03.239Z,4.29
2022-12-02T11:32:03.021Z,4.29
2022-12-02T11:33:02.942Z,4.33
2022-12-02T11:34:06.071Z,4.25
2022-12-02T11:35:17.654Z,4.25
2022-12-02T11:36:03.267Z,4.31
2022-12-02T11:37:03.135Z,4.38
2022-12-02T11:38:02.996Z,4.36
2022-12-02T11:39:03.549Z,4.33
2022-12-02T11:40:03.230Z,4.32
2022-12-02T11:41:03.256Z,4.27
2022-12-02T11:42:02.656Z,4.30
2022-12-02T11:43:02.404Z,4.27
2022-12-02T11:44:02.368Z,4.28
2022-12-02T11:45:02.932Z,4.24
2022-12-02T11:46:02.646Z,4.25
2022-12-02T11:47:03.078Z,4.26
2022-12-02T11:48:02.811Z,4.31
2022-12-02T11:49:03.353Z,4.32
2022-12-02T11:50:02.834Z,4.36
2022-12-02T11:51:03.398Z,4.32
2022-12-02T11:52:08.043Z,4.30
2022-12-02T11:53:02.440Z,4.34
2022-12-02T11:54:02.959Z,4.33
2022-12-02T11:55:02.448Z,4.37
2022-12-02T11:56:02.915Z,4.40
2022-12-02T11:57:02.775Z,4.34
2022-12-02T11:58:02.488Z,4.38
2022-12-02T11:59:02.689Z,4.39
2022-12-02T12:00:02.409Z,4.43
2022-12-02T12:01:03.045Z,4.32
2022-12-02T12:02:03.405Z,4.30
2022-12-02T12:03:03.321Z,4.29
2022-12-02T12:04:03.128Z,4.34
2022-12-02T12:05:03.000Z,4.36
2022-12-02T12:06:03.529Z,4.33
2022-12-02T12:07:03.376Z,4.32
2022-12-02T12:08:03.810Z,4.32
2022-12-02T12:09:03.218Z,4.31
2022-12-02T12:10:03.086Z,4.26
2022-12-02T12:11:03.549Z,4.20
2022-12-02T12:12:03.006Z,4.16
2022-12-02T12:13:02.732Z,4.11
2022-12-02T12:14:03.135Z,4.07
2022-12-02T12:15:02.743Z,4.06
2022-12-02T12:16:03.133Z,4.01
2022-12-02T12:17:02.675Z,4.03
2022-12-02T12:18:02.589Z,4.05
2022-12-02T12:19:04.554Z,4.09
2022-12-02T12:20:02.420Z,4.16
2022-12-02T12:21:02.826Z,4.19
2022-12-02T12:22:03.129Z,4.25
2022-12-02T12:23:02.925Z,4.32
2022-12-02T12:24:02.803Z,4.27
2022-12-02T12:25:03.212Z,4.20
2022-12-02T12:26:03.000Z,4.13
2022-12-02T12:27:03.394Z,4.13
2022-12-02T12:28:03.270Z,4.11
2022-12-02T12:29:03.079Z,4.09
2022-12-02T12:30:03.528Z,4.06
2022-12-02T12:31:03.315Z,4.01
2022-12-02T12:32:02.454Z,3.98
2022-12-02T12:33:02.411Z,3.96
2022-12-02T12:34:02.864Z,3.92
2022-12-02T12:35:02.501Z,3.92
2022-12-02T12:36:02.377Z,3.90
2022-12-02T12:37:03.003Z,3.91
2022-12-02T12:38:02.902Z,3.94
2022-12-02T12:39:02.778Z,4.02
2022-12-02T12:40:02.685Z,4.12
2022-12-02T12:41:02.895Z,4.20
2022-12-02T12:42:03.305Z,4.29
2022-12-02T12:43:03.001Z,4.38
2022-12-02T12:44:02.797Z,4.48
2022-12-02T12:45:03.287Z,4.55
2022-12-02T12:46:03.444Z,4.61
2022-12-02T12:47:02.917Z,4.65
2022-12-02T12:48:02.569Z,4.70
2022-12-02T12:49:02.452Z,4.77
2022-12-02T12:50:02.463Z,4.82
2022-12-02T12:51:02.437Z,4.86
2022-12-02T12:52:03.254Z,4.82
2022-12-02T12:53:03.133Z,4.89
2022-12-02T12:54:02.926Z,4.92
2022-12-02T12:55:02.814Z,4.96
2022-12-02T12:56:03.296Z,4.99
2022-12-02T12:57:02.598Z,5.04
2022-12-02T12:58:02.256Z,5.00
2022-12-02T12:59:02.054Z,5.04
2022-12-02T13:00:02.036Z,5.06
2022-12-02T13:01:02.613Z,5.08
2022-12-02T13:02:03.113Z,5.02
2022-12-02T13:03:02.474Z,4.97
2022-12-02T13:04:02.420Z,4.94
2022-12-02T13:05:02.896Z,4.92
2022-12-02T13:06:03.006Z,4.91
2022-12-02T13:07:03.161Z,4.92
2022-12-02T13:08:02.905Z,4.92
2022-12-02T13:09:02.879Z,4.93
2022-12-02T13:10:03.190Z,4.91
2022-12-02T13:11:02.625Z,4.95
2022-12-02T13:12:05.286Z,4.99
2022-12-02T13:13:02.833Z,5.02
2022-12-02T13:14:02.625Z,5.01
2022-12-02T13:15:02.541Z,5.05
2022-12-02T13:16:03.194Z,5.01
2022-12-02T13:17:01.928Z,5.02
2022-12-02T13:18:02.129Z,4.95
2022-12-02T13:19:01.878Z,4.84